Cascade, Iowa
Current Conditions -  °F | °C
As of 6:55 AM on Friday 24 Oct 2014 (Local Time) from KMXO Reporting Station
Moderate Fog Moderate Fog  
Wind Chill: 10°   Ceiling: 200
Heat Index: 10°   Visibility: 0mi
Dew Point: 10°   Wind: 5mph
Humidity: 100%   Direction: 160°SSE
Pressure: 30.03"   Gusts: NA
Location:  42.3°N, 91.01°W
Report Text: KMXO 241155Z AUTO 16004KT M1/4SM FG OVC002 10/10 A3003 RMK AO2
Loading
Personal Weather Stations






























Interactive Weather Map
Tropical Storm Tracking
New forecast layout! Learn more

10-Day Weather Forecast

Advertisements
Track Severe Weather on mobile